Time;durP1;ratioP1;P1;durP2;ratioP2;P2;SDS_P1;SDS_P2;PMS_P1;PMS_P2;Temp;Humidity;BMP_temperature;BMP_pressure;BME280_temperature;BME280_humidity;BME280_pressure;Samples;Min_cycle;Max_cycle;Signal;HPM_P1;HPM_P2
2022/05/09 00:01:29;;;;;;;16.23;12.93;;;14.10;69.10;;;10.06;87.47;96081.00;5072579;28;20024;-58
2022/05/09 00:03:56;;;;;;;15.93;12.48;;;14.00;69.30;;;10.03;87.40;96081.50;5070954;28;20372;-58
2022/05/09 00:06:25;;;;;;;17.00;12.32;;;14.00;69.20;;;10.02;86.99;96074.56;5071881;28;20028;-58
2022/05/09 00:08:54;;;;;;;17.95;13.75;;;14.00;69.40;;;9.95;86.95;96072.09;5059470;28;20503;-58
2022/05/09 00:11:19;;;;;;;14.45;12.18;;;14.00;69.30;;;9.91;86.94;96068.31;5056171;28;20032;-58
2022/05/09 00:13:45;;;;;;;17.25;13.52;;;13.90;69.20;;;9.86;87.40;96067.44;5054500;28;20392;-58
2022/05/09 00:16:11;;;;;;;16.77;13.52;;;13.90;69.30;;;9.83;87.79;96062.63;5036785;28;20024;-57
2022/05/09 00:18:38;;;;;;;17.40;13.68;;;13.90;69.30;;;9.80;87.91;96058.59;5069630;28;20033;-57
2022/05/09 00:21:13;;;;;;;17.83;13.98;;;13.90;69.40;;;9.81;88.00;96065.53;5069932;28;20056;-58
2022/05/09 00:23:45;;;;;;;18.88;13.65;;;13.80;69.50;;;9.78;88.36;96060.72;5053652;28;20025;-58
2022/05/09 00:26:13;;;;;;;17.98;13.40;;;13.90;69.80;;;9.78;88.10;96059.88;5076417;28;20047;-58
2022/05/09 00:28:39;;;;;;;16.00;13.32;;;13.80;69.90;;;9.75;87.87;96057.75;5091029;28;20085;-58
2022/05/09 00:31:05;;;;;;;16.55;13.40;;;13.70;69.80;;;9.73;88.39;96058.78;5053779;28;20103;-58
2022/05/09 00:33:37;;;;;;;17.10;13.15;;;13.80;70.00;;;9.67;88.22;96049.13;5053422;28;20040;-58
2022/05/09 00:36:09;;;;;;;18.27;14.23;;;13.70;70.10;;;9.65;88.14;96053.06;5070886;28;20032;-58
2022/05/09 00:38:41;;;;;;;18.02;13.98;;;13.70;70.10;;;9.63;88.03;96053.34;5070338;28;20108;-58
2022/05/09 00:43:52;;;;;;;19.27;14.70;;;13.70;70.10;;;9.57;88.27;96045.53;5092928;28;20039;-57
2022/05/09 00:46:18;;;;;;;21.30;15.75;;;13.60;70.10;;;9.58;88.41;96049.81;5065714;28;20025;-57
2022/05/09 00:48:46;;;;;;;21.50;16.17;;;13.60;70.20;;;9.57;88.92;96045.53;5055631;28;20047;-58
2022/05/09 00:51:23;;;;;;;23.20;15.65;;;13.60;70.40;;;9.61;89.00;96051.97;5056999;28;20103;-58
2022/05/09 00:53:58;;;;;;;19.63;14.80;;;13.60;70.70;;;9.64;89.07;96051.47;5057170;28;20391;-58
2022/05/09 00:56:37;;;;;;;17.88;14.65;;;13.70;70.90;;;9.65;88.93;96056.56;5057561;28;20060;-57
2022/05/09 00:59:13;;;;;;;18.30;14.02;;;13.60;70.90;;;9.65;89.24;96055.75;5067514;28;20173;-58
2022/05/09 01:01:40;;;;;;;18.35;13.45;;;13.70;71.00;;;9.68;89.11;96061.41;5057477;28;20101;-58
2022/05/09 01:04:13;;;;;;;19.33;13.65;;;13.70;70.80;;;9.67;88.98;96061.63;5063851;28;20028;-58
2022/05/09 01:06:42;;;;;;;;;;;13.80;71.00;;;9.67;88.92;96043.81;5073812;28;20563;-58
2022/05/09 01:09:14;;;;;;;18.98;14.27;;;13.70;70.40;;;9.75;88.96;96057.75;5070494;28;19973;-58
2022/05/09 01:11:44;;;;;;;21.38;14.23;;;13.80;70.60;;;9.72;89.12;96046.53;5060525;28;20024;-58
2022/05/09 01:14:22;;;;;;;20.27;14.40;;;13.80;70.50;;;9.77;88.91;96059.09;5076523;28;20028;-58
2022/05/09 01:16:48;;;;;;;17.83;13.88;;;13.80;70.70;;;9.80;88.86;96063.91;5073470;28;20551;-58
2022/05/09 01:19:43;;;;;;;20.13;14.88;;;13.80;70.60;;;9.81;88.96;96059.38;5074882;28;20036;-58
2022/05/09 01:22:29;;;;;;;18.65;14.57;;;13.90;71.00;;;9.84;89.13;96066.88;5071045;28;20059;-58
2022/05/09 01:25:03;;;;;;;15.98;13.35;;;13.90;71.00;;;9.87;89.30;96064.56;5077265;28;20406;-58
2022/05/09 01:27:48;;;;;;;19.77;14.57;;;14.00;70.90;;;9.93;89.80;96066.22;5074171;28;20085;-58
2022/05/09 01:30:52;;;;;;;19.85;14.90;;;14.00;71.10;;;10.05;90.46;96074.06;5073815;28;20021;-58
2022/05/09 01:33:25;;;;;;;18.67;15.48;;;14.10;71.20;;;10.12;90.54;96081.84;5068103;28;20032;-58
2022/05/09 01:36:14;;;;;;;20.70;17.02;;;14.10;71.20;;;10.23;90.85;96072.94;5056578;28;20032;-58
2022/05/09 01:39:02;;;;;;;19.83;16.95;;;14.20;71.50;;;10.35;90.86;96072.81;5093923;28;20067;-58
2022/05/09 01:41:47;;;;;;;21.63;17.30;;;14.30;71.60;;;10.46;90.34;96074.50;5094910;28;20024;-56
2022/05/09 01:44:15;;;;;;;19.75;15.73;;;14.30;72.10;;;10.55;89.96;96070.34;5068876;28;20032;-57
2022/05/09 01:49:34;;;;;;;15.57;12.88;;;14.50;72.10;;;10.73;89.11;96077.19;5067947;28;20094;-55
2022/05/09 01:52:04;;;;;;;15.30;12.88;;;14.60;71.90;;;10.79;88.91;96078.84;5093352;28;20028;-54
2022/05/09 01:54:31;;;;;;;15.25;12.70;;;14.70;71.90;;;10.82;88.31;96073.00;5063850;28;20471;-57
2022/05/09 01:57:00;;;;;;;14.80;12.80;;;14.70;71.70;;;10.89;88.05;96075.44;5089414;28;20059;-58
2022/05/09 01:59:32;;;;;;;14.77;12.77;;;14.80;71.60;;;10.89;87.89;96076.25;5069888;28;20020;-58
2022/05/09 02:02:08;;;;;;;18.80;14.35;;;14.90;71.60;;;10.97;87.87;96077.66;5076403;28;20028;-56
2022/05/09 02:04:43;;;;;;;17.13;13.45;;;14.90;71.40;;;11.04;87.63;96077.44;5082696;28;20025;-56
2022/05/09 02:07:15;;;;;;;16.42;12.38;;;15.00;71.40;;;11.05;87.42;96071.84;5062783;28;20370;-56
2022/05/09 02:09:47;;;;;;;15.15;12.15;;;15.00;71.20;;;11.12;87.36;96076.94;5072898;28;20021;-58
2022/05/09 02:12:20;;;;;;;17.92;12.98;;;15.00;71.00;;;11.16;86.89;96088.72;5074502;28;20028;-53
2022/05/09 02:14:48;;;;;;;15.35;12.45;;;15.20;71.00;;;11.16;86.82;96086.06;5053305;28;20025;-54
2022/05/09 02:17:20;;;;;;;17.23;13.23;;;15.10;70.70;;;11.18;86.92;96085.78;5052371;28;20112;-51
2022/05/09 02:19:48;;;;;;;17.30;13.27;;;15.20;70.80;;;11.21;86.93;96085.28;5052612;28;20025;-54
2022/05/09 02:22:18;;;;;;;17.20;13.98;;;15.20;70.70;;;11.23;86.82;96080.50;5067513;28;20027;-50
2022/05/09 02:24:53;;;;;;;16.30;13.48;;;15.30;70.90;;;11.30;86.38;96087.22;5072439;28;20132;-51
2022/05/09 02:27:25;;;;;;;16.88;14.07;;;15.30;70.90;;;11.31;86.02;96078.16;5073497;28;20101;-50
2022/05/09 02:29:51;;;;;;;16.67;13.65;;;15.30;70.90;;;11.33;86.21;96073.38;5073545;28;20085;-50
2022/05/09 02:32:24;;;;;;;15.10;13.13;;;15.30;70.90;;;11.38;85.88;96077.94;5073391;28;20032;-52
2022/05/09 02:34:53;;;;;;;15.40;13.30;;;15.30;70.90;;;11.37;85.75;96079.00;5061467;28;20059;-52
2022/05/09 02:37:19;;;;;;;14.38;12.65;;;15.30;70.90;;;11.38;85.44;96069.94;5066919;28;20040;-52
2022/05/09 02:39:46;;;;;;;15.45;12.40;;;15.30;71.60;;;11.46;85.65;96079.31;5063499;28;20028;-50
2022/05/09 02:42:14;;;;;;;15.05;12.88;;;15.30;70.70;;;11.44;85.71;96074.25;5073237;28;20462;-50
2022/05/09 02:44:40;;;;;;;14.38;12.88;;;15.40;70.80;;;11.51;85.45;96082.03;5072120;28;20491;-56
2022/05/09 02:47:06;;;;;;;17.42;13.55;;;15.40;70.60;;;11.53;85.41;96085.22;5073179;28;20050;-55
2022/05/09 02:49:32;;;;;;;16.70;13.07;;;15.40;70.50;;;11.53;84.76;96082.53;5073302;28;20360;-52
2022/05/09 02:52:02;;;;;;;14.82;12.32;;;15.40;70.40;;;11.49;84.54;96081.47;5073216;28;20024;-50
2022/05/09 02:54:28;;;;;;;15.43;13.30;;;15.50;70.30;;;11.51;84.31;96082.81;5059205;28;20029;-50
2022/05/09 02:56:54;;;;;;;14.43;12.60;;;15.50;70.20;;;11.50;84.31;96083.06;5072945;28;20025;-53
2022/05/09 02:59:34;;;;;;;14.30;12.68;;;15.50;70.20;;;11.52;84.07;96088.97;5059119;28;20495;-52
2022/05/09 03:02:01;;;;;;;14.30;12.43;;;15.50;70.10;;;11.50;84.07;96083.91;5060752;28;20021;-50
2022/05/09 03:04:39;;;;;;;19.27;13.07;;;15.50;70.00;;;11.49;83.87;96076.94;5054530;28;20425;-50
2022/05/09 03:07:17;;;;;;;15.15;12.32;;;15.50;70.00;;;11.53;84.16;96093.22;5071285;28;20068;-51
2022/05/09 03:09:47;;;;;;;15.15;12.80;;;15.50;70.00;;;11.53;84.07;96085.22;5071716;28;20051;-52
2022/05/09 03:12:19;;;;;;;14.80;12.95;;;15.50;69.90;;;11.55;84.09;96091.09;5070437;28;20032;-51
2022/05/09 03:14:47;;;;;;;15.45;12.85;;;15.40;69.90;;;11.56;84.14;96084.69;5051630;28;20025;-50
2022/05/09 03:17:15;;;;;;;14.82;12.52;;;15.40;69.80;;;11.56;83.96;96092.72;5034850;28;20419;-51
2022/05/09 03:19:41;;;;;;;14.25;12.63;;;15.50;69.90;;;11.52;83.91;96084.41;5051431;28;20051;-51
2022/05/09 03:22:14;;;;;;;14.30;11.48;;;15.50;69.90;;;11.53;83.86;96088.72;5051507;28;20071;-51
2022/05/09 03:24:43;;;;;;;16.15;12.45;;;15.50;69.90;;;11.51;84.30;96088.16;5052712;28;20021;-52
2022/05/09 03:27:14;;;;;;;16.73;12.73;;;15.50;69.90;;;11.54;84.24;96092.19;5051201;28;20076;-51
2022/05/09 03:29:43;;;;;;;15.68;13.00;;;15.50;69.90;;;11.57;84.24;96095.13;5052466;28;20029;-50
2022/05/09 03:32:09;;;;;;;14.82;13.18;;;15.50;69.90;;;11.59;84.38;96092.19;5052351;28;20029;-51
2022/05/09 03:34:34;;;;;;;17.50;13.55;;;15.50;69.90;;;11.57;84.45;96092.47;5051343;28;20025;-53
2022/05/09 03:37:06;;;;;;;15.25;13.35;;;15.50;69.90;;;11.55;84.61;96093.78;5050927;28;20072;-51
2022/05/09 03:39:44;;;;;;;17.52;13.82;;;15.50;70.00;;;11.57;84.62;96094.34;5063719;28;20028;-54
2022/05/09 03:42:18;;;;;;;17.80;13.90;;;15.50;70.10;;;11.60;84.67;96093.81;5071134;28;20029;-52
2022/05/09 03:44:48;;;;;;;16.08;12.88;;;15.50;70.10;;;11.58;84.55;96088.72;5056948;28;20025;-53
2022/05/09 03:47:15;;;;;;;16.27;13.20;;;15.50;70.10;;;11.59;84.74;96086.84;5034616;28;20024;-54
2022/05/09 03:49:43;;;;;;;15.88;13.77;;;15.50;70.10;;;11.56;84.52;96082.03;5052113;28;20431;-51
2022/05/09 03:52:12;;;;;;;17.60;13.38;;;15.50;70.00;;;11.57;84.11;96089.78;5051103;28;20669;-50
2022/05/09 03:54:38;;;;;;;17.60;13.63;;;15.50;70.00;;;11.59;84.21;96094.84;5051243;28;20037;-50
2022/05/09 03:57:13;;;;;;;15.02;13.43;;;15.50;69.90;;;11.58;84.01;96095.94;5050712;28;20029;-51
2022/05/09 03:59:45;;;;;;;13.27;11.88;;;15.50;69.90;;;11.60;84.02;96090.34;5052385;28;20415;-54
2022/05/09 04:02:13;;;;;;;15.70;13.50;;;15.50;69.80;;;11.60;83.92;96093.03;5052205;28;20021;-49
2022/05/09 04:04:42;;;;;;;15.85;12.57;;;15.50;69.80;;;11.56;83.67;96092.72;5050344;28;20032;-51
2022/05/09 04:07:08;;;;;;;15.75;13.07;;;15.50;69.70;;;11.53;83.78;96087.88;5053923;28;20055;-52
2022/05/09 04:09:36;;;;;;;18.77;13.98;;;15.50;69.70;;;11.50;84.20;96097.22;5050549;28;20107;-53
2022/05/09 04:12:06;;;;;;;16.20;12.98;;;15.50;69.70;;;11.49;84.10;96100.13;5047710;28;20021;-50
2022/05/09 04:17:24;;;;;;;17.13;13.30;;;15.50;69.80;;;11.42;83.87;96092.38;5073511;28;20094;-51
2022/05/09 04:19:53;;;;;;;17.75;13.02;;;15.50;69.70;;;11.46;83.84;96106.00;5063678;28;20029;-50
2022/05/09 04:22:25;;;;;;;16.20;12.70;;;15.50;69.70;;;11.45;83.62;96104.38;5074249;28;20020;-49
2022/05/09 04:24:54;;;;;;;14.50;12.20;;;15.50;69.60;;;11.41;83.49;96105.97;5074697;28;20035;-53
2022/05/09 04:27:29;;;;;;;17.33;13.25;;;15.50;69.60;;;11.41;83.50;96105.97;5076178;28;20657;-52
2022/05/09 04:29:58;;;;;;;15.00;11.95;;;15.50;69.60;;;11.39;83.83;96108.88;5075988;28;20037;-52
2022/05/09 04:32:24;;;;;;;15.75;12.48;;;15.50;69.50;;;11.40;83.62;96115.03;5058227;28;20036;-53
2022/05/09 04:34:50;;;;;;;17.88;12.88;;;15.50;69.50;;;11.40;83.67;96115.03;5061085;28;20030;-50
2022/05/09 04:37:22;;;;;;;17.27;12.73;;;15.40;69.40;;;11.43;83.69;96122.50;5075673;28;20028;-51
2022/05/09 04:39:48;;;;;;;15.65;13.48;;;15.50;69.50;;;11.41;83.86;96124.66;5075701;28;20032;-53
2022/05/09 04:42:26;;;;;;;15.32;13.25;;;15.50;69.50;;;11.40;83.62;96126.47;5065836;28;20147;-53
2022/05/09 04:44:51;;;;;;;13.98;11.93;;;15.50;69.50;;;11.45;83.28;96128.41;5054193;28;20044;-53
2022/05/09 04:47:17;;;;;;;13.63;12.05;;;15.50;69.40;;;11.48;83.15;96131.34;5065704;28;20115;-54
2022/05/09 04:49:46;;;;;;;13.95;12.50;;;15.50;69.40;;;11.49;82.87;96132.94;5075327;28;20025;-53
2022/05/09 04:52:12;;;;;;;15.10;12.95;;;15.50;69.30;;;11.47;83.00;96132.44;5074587;28;20024;-52
2022/05/09 04:54:37;;;;;;;14.27;12.00;;;15.60;69.20;;;11.42;82.86;96142.25;5074157;28;20562;-51
2022/05/09 04:57:12;;;;;;;14.27;11.93;;;15.60;69.10;;;11.40;82.78;96141.69;5047321;28;20431;-53
2022/05/09 04:59:58;;;;;;;15.90;12.27;;;15.60;69.00;;;11.41;82.57;96149.44;5053813;28;20029;-53
2022/05/09 05:02:24;;;;;;;15.23;11.63;;;15.60;68.90;;;11.33;82.53;96129.38;5054765;28;20025;-52
2022/05/09 05:05:09;;;;;;;14.82;11.95;;;15.50;68.80;;;11.43;82.55;96144.66;5074141;28;20031;-53
2022/05/09 05:07:35;;;;;;;14.90;12.25;;;15.60;68.90;;;11.45;82.28;96139.88;5073581;28;20133;-50
2022/05/09 05:10:05;;;;;;;14.68;12.40;;;15.60;68.80;;;11.47;82.24;96145.75;5063800;28;20036;-53
2022/05/09 05:12:31;;;;;;;13.35;11.55;;;15.60;68.70;;;11.46;81.98;96146.00;5053837;28;20040;-51
2022/05/09 05:14:57;;;;;;;13.95;12.23;;;15.60;68.60;;;11.46;81.88;96154.00;5081698;28;20029;-55
2022/05/09 05:17:26;;;;;;;13.40;11.48;;;15.70;68.60;;;11.50;82.00;96147.09;5066145;28;20383;-53
2022/05/09 05:20:13;;;;;;;14.45;12.30;;;15.70;68.40;;;11.49;81.92;96148.97;5062183;28;20027;-55
2022/05/09 05:22:42;;;;;;;14.65;12.15;;;15.70;68.40;;;11.59;81.70;96153.56;5049179;28;20091;-55
2022/05/09 05:25:10;;;;;;;15.10;12.05;;;15.70;68.30;;;11.56;81.75;96154.06;5067009;28;20016;-51
2022/05/09 05:27:36;;;;;;;14.25;12.27;;;15.80;68.10;;;11.52;81.54;96151.13;5062807;28;20029;-55
2022/05/09 05:30:10;;;;;;;14.82;12.70;;;15.90;68.10;;;11.57;81.65;96153.03;5050092;28;20032;-52
2022/05/09 05:32:41;;;;;;;13.75;11.85;;;15.90;67.80;;;11.61;81.46;96156.78;5060872;28;20033;-55
2022/05/09 05:35:15;;;;;;;14.32;12.80;;;15.90;67.80;;;11.60;81.41;96159.72;5064834;28;20025;-55
2022/05/09 05:37:44;;;;;;;15.18;12.85;;;16.00;67.60;;;11.60;81.34;96157.06;5060869;28;20036;-51
2022/05/09 05:40:11;;;;;;;16.67;13.85;;;16.00;67.50;;;11.60;81.16;96157.84;5068550;28;20032;-52
2022/05/09 05:42:42;;;;;;;19.20;13.15;;;16.00;67.30;;;11.64;80.91;96163.47;5065724;28;20024;-50
2022/05/09 05:45:13;;;;;;;17.88;12.98;;;16.10;67.20;;;11.63;80.72;96172.56;5056565;28;20027;-50
2022/05/09 05:47:39;;;;;;;16.10;13.48;;;16.10;67.00;;;11.67;80.85;96171.78;5070668;28;20372;-52
2022/05/09 05:50:10;;;;;;;15.43;12.60;;;16.10;66.90;;;11.70;80.97;96171.25;5069502;28;20048;-55
2022/05/09 05:52:37;;;;;;;18.58;13.20;;;16.20;66.90;;;11.74;80.48;96171.53;5059610;28;20029;-50
2022/05/09 05:55:04;;;;;;;15.88;13.75;;;16.20;66.80;;;11.79;81.04;96172.38;5019517;28;20040;-52
2022/05/09 05:57:33;;;;;;;17.08;13.25;;;16.30;66.70;;;11.81;80.80;96175.63;5055845;28;20044;-55
2022/05/09 06:00:09;;;;;;;13.63;12.05;;;16.40;66.60;;;11.91;80.63;96174.91;5050447;28;20110;-52
2022/05/09 06:02:38;;;;;;;16.52;12.45;;;16.40;66.40;;;11.95;80.01;96167.97;5049795;28;20025;-56
2022/05/09 06:05:09;;;;;;;17.10;13.57;;;16.50;66.30;;;12.01;79.92;96179.50;5069410;28;20028;-51
2022/05/09 06:07:35;;;;;;;15.32;11.90;;;16.60;66.10;;;12.07;79.63;96183.00;5041618;28;20051;-51
2022/05/09 06:10:02;;;;;;;16.98;12.75;;;16.70;65.90;;;12.15;79.46;96183.28;5046691;28;20028;-53
2022/05/09 06:12:28;;;;;;;14.48;12.32;;;16.80;65.70;;;12.25;79.25;96183.34;5056708;28;20033;-52
2022/05/09 06:17:38;;;;;;;14.13;12.23;;;17.00;65.30;;;12.41;78.64;96181.56;5053632;28;20044;-50
2022/05/09 06:20:06;;;;;;;15.63;12.48;;;17.10;65.00;;;12.53;78.57;96191.19;5052758;28;20037;-53
2022/05/09 06:22:32;;;;;;;15.25;12.85;;;17.30;64.90;;;12.65;78.46;96173.06;5072762;28;20030;-52
2022/05/09 06:25:00;;;;;;;14.90;12.75;;;17.40;64.80;;;12.85;78.43;96183.00;5055870;28;20061;-51
2022/05/09 06:27:28;;;;;;;15.77;12.60;;;17.50;64.60;;;12.95;78.17;96183.03;5055672;28;20024;-55
2022/05/09 06:29:57;;;;;;;14.43;12.15;;;17.70;64.40;;;13.08;77.98;96189.75;5059915;28;20396;-52
2022/05/09 06:32:25;;;;;;;13.80;12.30;;;17.80;64.20;;;13.15;77.46;96192.97;5053657;28;20029;-53
2022/05/09 06:34:54;;;;;;;15.52;11.52;;;18.00;64.00;;;13.18;77.04;96190.56;5035653;28;20039;-53
2022/05/09 06:37:25;;;;;;;12.57;11.25;;;18.10;63.60;;;13.24;76.90;96195.91;5052371;28;20033;-52
2022/05/09 06:39:52;;;;;;;15.48;12.43;;;18.20;63.10;;;13.37;76.83;96192.75;5049795;28;20032;-50
2022/05/09 06:42:24;;;;;;;13.98;11.98;;;18.30;62.90;;;13.49;76.12;96195.97;5038896;28;20027;-50
2022/05/09 06:44:56;;;;;;;14.13;12.20;;;18.50;62.60;;;13.50;75.83;96191.41;5068825;28;20036;-53
2022/05/09 06:47:27;;;;;;;14.13;12.02;;;18.60;62.10;;;13.53;75.29;96194.34;5053304;28;20107;-52
2022/05/09 06:49:57;;;;;;;14.88;12.15;;;18.70;61.70;;;13.63;75.11;96202.41;5051910;28;20037;-52
2022/05/09 06:52:25;;;;;;;13.10;11.70;;;18.80;61.40;;;13.73;74.84;96195.44;5053308;28;20063;-54
2022/05/09 06:54:51;;;;;;;14.65;11.38;;;18.90;61.10;;;13.71;75.00;96194.88;5053057;28;20060;-54
2022/05/09 06:57:16;;;;;;;14.27;12.48;;;19.00;60.80;;;13.86;74.14;96206.38;5051853;28;20072;-53
2022/05/09 06:59:42;;;;;;;14.07;12.57;;;19.10;60.60;;;14.00;74.14;96206.59;5053176;28;20536;-54
2022/05/09 07:02:13;;;;;;;14.63;12.45;;;19.20;60.30;;;13.91;73.67;96205.56;5051798;28;20242;-51
2022/05/09 07:04:39;;;;;;;13.50;12.02;;;19.40;59.80;;;14.15;73.58;96210.34;5067670;28;20025;-53
2022/05/09 07:07:11;;;;;;;15.30;12.32;;;19.50;59.70;;;14.29;73.14;96212.19;5066833;28;20066;-54
2022/05/09 07:09:37;;;;;;;13.40;12.00;;;19.70;59.50;;;14.46;72.66;96213.75;5067143;28;20035;-56
2022/05/09 07:12:03;;;;;;;13.27;11.77;;;19.80;59.40;;;14.48;71.98;96206.25;5085559;28;20554;-55
2022/05/09 07:14:29;;;;;;;12.98;11.57;;;19.90;59.00;;;14.68;72.20;96213.41;5084234;28;20052;-52
2022/05/09 07:16:57;;;;;;;15.15;12.20;;;20.10;58.80;;;14.92;71.18;96213.59;5071174;28;20052;-54
2022/05/09 07:19:26;;;;;;;16.10;12.43;;;20.30;58.60;;;15.07;70.33;96218.84;5071809;28;20120;-52
2022/05/09 07:21:54;;;;;;;13.27;11.95;;;20.50;58.30;;;15.13;69.57;96206.19;5071582;28;20032;-53
2022/05/09 07:24:32;;;;;;;15.95;13.50;;;20.60;57.80;;;15.11;69.73;96213.75;5079738;28;20086;-51
2022/05/09 07:27:04;;;;;;;13.40;11.77;;;20.70;57.20;;;15.10;69.70;96218.28;5055877;28;20035;-53
2022/05/09 07:29:33;;;;;;;14.45;12.23;;;20.80;56.90;;;14.98;70.32;96220.53;5073818;28;20118;-51
2022/05/09 07:32:11;;;;;;;12.70;11.00;;;20.80;56.60;;;15.06;70.13;96219.13;5091917;28;20068;-52
2022/05/09 07:34:37;;;;;;;13.43;11.00;;;20.90;56.40;;;15.14;69.43;96218.56;5092059;28;20391;-54
2022/05/09 07:37:03;;;;;;;14.45;11.85;;;21.00;56.20;;;15.28;69.25;96217.63;5091299;28;20028;-55
2022/05/09 07:39:38;;;;;;;12.07;10.88;;;21.10;56.00;;;15.47;68.45;96215.09;5089043;28;20483;-51
2022/05/09 07:42:04;;;;;;;12.63;11.32;;;21.30;55.60;;;15.47;68.36;96217.75;5057277;28;20112;-51
2022/05/09 07:44:30;;;;;;;13.55;11.25;;;21.50;55.20;;;15.68;68.38;96214.97;5053403;28;20016;-53
2022/05/09 07:46:56;;;;;;;13.70;10.90;;;21.60;55.00;;;15.81;67.19;96208.94;5044306;28;20085;-50
2022/05/09 07:49:22;;;;;;;12.63;10.75;;;21.80;54.80;;;15.93;67.25;96220.13;5071551;28;20028;-50
2022/05/09 07:51:47;;;;;;;12.32;10.95;;;21.80;54.30;;;16.12;66.23;96222.09;5085652;28;20077;-50
2022/05/09 07:54:14;;;;;;;12.60;11.30;;;22.00;54.00;;;16.22;66.11;96215.81;5087972;28;20028;-52
2022/05/09 07:56:43;;;;;;;12.73;10.40;;;22.10;53.80;;;16.32;65.34;96221.06;5086787;28;20024;-51
2022/05/09 07:59:10;;;;;;;13.70;10.73;;;22.10;53.50;;;16.50;65.46;96219.53;5072711;28;20491;-50
2022/05/09 08:01:35;;;;;;;10.85;9.75;;;22.30;53.40;;;16.65;64.96;96220.16;5084806;28;20060;-54
2022/05/09 08:04:07;;;;;;;13.20;10.90;;;22.40;53.20;;;16.86;64.98;96217.25;5089226;28;20431;-50
2022/05/09 08:06:33;;;;;;;15.68;10.70;;;22.60;52.90;;;17.04;63.32;96216.44;5087238;28;20032;-54
2022/05/09 08:09:00;;;;;;;11.32;9.90;;;22.70;52.80;;;17.10;63.50;96223.38;5052731;28;20487;-51
2022/05/09 08:11:26;;;;;;;11.93;10.65;;;22.80;52.50;;;17.14;63.51;96220.09;5083365;28;20055;-54
2022/05/09 08:13:52;;;;;;;12.15;10.75;;;23.00;52.20;;;17.20;63.68;96221.63;5084309;28;20067;-52
2022/05/09 08:16:20;;;;;;;11.50;10.38;;;23.00;52.60;;;17.57;63.52;96226.97;5081146;28;20028;-51
2022/05/09 08:18:49;;;;;;;12.02;10.80;;;23.30;51.90;;;17.84;62.25;96230.91;5087637;28;20028;-57
2022/05/09 08:21:15;;;;;;;13.27;10.32;;;23.60;51.80;;;17.96;61.57;96230.47;5086024;28;20032;-56
2022/05/09 08:23:41;;;;;;;13.80;10.43;;;23.70;51.30;;;18.09;60.03;96224.28;5088172;28;20025;-56
2022/05/09 08:26:07;;;;;;;11.00;10.00;;;23.90;50.80;;;18.07;60.83;96233.75;5073516;28;20479;-54
2022/05/09 08:28:33;;;;;;;12.75;10.32;;;24.10;50.20;;;18.22;59.43;96228.09;5060486;28;20043;-54
2022/05/09 08:30:59;;;;;;;12.05;10.68;;;24.30;49.60;;;18.33;58.79;96228.72;5063152;28;20036;-50
2022/05/09 08:33:29;;;;;;;12.48;10.30;;;24.40;49.20;;;18.33;59.99;96232.19;5087338;28;20502;-54
2022/05/09 08:35:57;;;;;;;10.52;9.27;;;24.40;49.00;;;18.36;59.77;96231.59;5082667;28;20088;-56
2022/05/09 08:38:24;;;;;;;11.90;10.70;;;24.50;49.00;;;18.45;59.23;96237.09;5074500;28;20056;-56
2022/05/09 08:41:15;;;;;;;11.10;9.93;;;24.40;48.80;;;18.40;59.97;96238.03;5071823;28;20157;-52
2022/05/09 08:44:27;;;;;;;11.95;10.15;;;24.50;48.70;;;18.52;58.88;96244.81;5071394;28;20424;-52
2022/05/09 08:47:41;;;;;;;11.75;10.30;;;24.60;48.50;;;18.55;59.29;96245.03;5085058;28;20031;-53
2022/05/09 08:50:41;;;;;;;11.63;9.73;;;24.80;47.90;;;18.68;58.67;96246.13;5071791;28;20513;-55
2022/05/09 08:53:16;;;;;;;11.23;10.20;;;24.90;47.90;;;18.92;57.71;96237.84;5080067;28;20514;-57
2022/05/09 08:55:44;;;;;;;13.45;10.10;;;25.40;47.20;;;19.07;56.89;96236.72;5072398;28;20024;-57
2022/05/09 08:58:29;;;;;;;10.55;9.55;;;25.70;46.50;;;18.95;57.04;96240.72;5048703;28;20377;-52
2022/05/09 09:00:55;;;;;;;11.18;10.00;;;25.90;45.80;;;19.23;56.41;96245.28;5081360;28;20513;-52
2022/05/09 09:03:39;;;;;;;11.60;10.32;;;25.80;45.70;;;19.06;56.38;96235.94;5064960;28;20036;-57
2022/05/09 09:06:51;;;;;;;11.02;9.65;;;25.80;45.40;;;19.18;55.90;96238.91;5070485;28;20032;-53
2022/05/09 09:09:26;;;;;;;10.63;9.63;;;25.90;45.30;;;19.18;56.87;96238.91;5060513;28;20044;-57
2022/05/09 09:12:21;;;;;;;10.32;9.30;;;25.90;44.90;;;19.49;55.67;96246.34;5061457;28;20387;-56
2022/05/09 09:15:21;;;;;;;10.43;9.43;;;26.00;44.80;;;19.93;54.19;96243.97;5089748;28;20036;-54
2022/05/09 09:18:15;;;;;;;9.63;8.70;;;26.60;44.20;;;19.96;53.83;96241.47;5071540;28;20020;-57
2022/05/09 09:21:19;;;;;;;10.05;8.82;;;26.40;44.00;;;20.43;52.50;96244.59;5084832;28;20033;-55
2022/05/09 09:24:42;;;;;;;7.93;7.13;;;26.80;43.60;;;20.59;50.59;96241.47;5070668;28;20432;-56
2022/05/09 09:27:41;;;;;;;;;;;26.90;42.90;;;20.51;49.52;96235.72;5080839;28;20483;-55
2022/05/09 09:30:13;;;;;;;6.38;5.78;;;26.60;43.80;;;21.03;47.60;96248.63;5088246;28;19908;-51
2022/05/09 09:33:00;;;;;;;6.32;5.82;;;27.20;42.40;;;21.58;45.08;96244.56;5062565;28;20079;-55
2022/05/09 09:36:00;;;;;;;6.35;5.75;;;28.00;41.20;;;22.34;44.30;96242.13;5072326;28;20453;-56
2022/05/09 09:38:58;;;;;;;6.80;6.20;;;28.80;40.30;;;22.22;44.40;96243.88;5087943;28;20048;-55
2022/05/09 09:41:34;;;;;;;5.95;5.45;;;29.10;39.30;;;22.94;42.98;96244.91;5041365;28;20107;-55
2022/05/09 09:44:20;;;;;;;7.35;6.72;;;29.70;38.50;;;22.97;44.54;96236.09;5065464;28;20020;-52
2022/05/09 09:47:11;;;;;;;6.45;5.80;;;30.40;37.40;;;23.68;42.14;96241.53;5071461;28;20025;-53
2022/05/09 09:49:42;;;;;;;6.88;5.68;;;31.00;36.30;;;24.23;40.52;96234.97;5063492;28;20503;-53
2022/05/09 09:52:31;;;;;;;7.43;6.82;;;31.60;35.60;;;24.90;40.01;96246.53;5093096;28;20486;-53
2022/05/09 09:55:24;;;;;;;8.13;6.35;;;32.30;34.80;;;24.76;38.87;96248.00;5073789;28;20031;-57
2022/05/09 09:57:50;;;;;;;9.65;8.45;;;32.40;33.70;;;24.34;41.25;96251.66;5048502;28;20070;-55
2022/05/09 10:00:31;;;;;;;9.02;8.23;;;32.20;33.70;;;24.05;41.79;96254.53;5071882;28;20021;-55
2022/05/09 10:03:39;;;;;;;7.60;6.90;;;32.00;33.20;;;23.70;41.80;96250.19;5069930;28;20104;-55
2022/05/09 10:06:21;;;;;;;7.65;7.05;;;31.80;33.50;;;24.11;41.50;96248.53;5006704;28;20038;-56
2022/05/09 10:09:19;;;;;;;8.07;7.22;;;31.90;32.80;;;23.72;42.33;96247.94;4989723;28;20066;-56
2022/05/09 10:11:44;;;;;;;7.85;7.15;;;32.00;32.70;;;23.57;42.10;96245.78;4965574;28;20473;-55
2022/05/09 10:14:12;;;;;;;6.47;5.93;;;31.80;32.60;;;23.19;43.30;96252.13;4992306;28;20030;-54
2022/05/09 10:16:48;;;;;;;7.15;6.55;;;31.40;32.60;;;23.18;42.98;96247.81;4988516;28;20053;-51
2022/05/09 10:19:37;;;;;;;6.85;6.28;;;31.00;32.90;;;23.14;42.11;96252.31;4974356;28;20035;-53
2022/05/09 10:25:23;;;;;;;7.40;6.70;;;30.20;33.50;;;22.36;43.37;96239.84;4959493;28;20073;-56
2022/05/09 10:28:22;;;;;;;7.78;6.70;;;29.80;33.70;;;21.89;45.40;96236.25;4974649;28;20035;-54
2022/05/09 10:30:57;;;;;;;7.22;6.53;;;29.30;34.30;;;21.17;46.16;96232.25;4991274;28;20042;-52
2022/05/09 10:33:33;;;;;;;7.57;6.85;;;28.90;34.40;;;21.37;45.68;96234.38;4976312;28;20049;-55
2022/05/09 10:36:08;;;;;;;7.72;6.82;;;29.10;34.20;;;21.83;45.50;96227.50;4983742;28;20040;-51
2022/05/09 10:39:13;;;;;;;8.30;7.53;;;29.10;34.60;;;22.38;44.92;96234.13;5040204;28;20094;-54
2022/05/09 10:41:49;;;;;;;7.50;6.85;;;29.40;34.70;;;22.80;43.63;96228.81;5038849;28;20546;-53
2022/05/09 10:44:41;;;;;;;8.00;7.20;;;29.60;34.70;;;22.73;43.86;96232.06;5036325;28;20029;-52
2022/05/09 10:47:49;;;;;;;8.57;7.67;;;29.70;34.40;;;22.25;44.12;96235.91;5033421;28;20112;-56
2022/05/09 10:50:25;;;;;;;8.20;7.38;;;29.70;34.10;;;21.56;44.94;96222.41;5044214;28;20401;-54